Time,TemperatureF,DewpointF,PressureIn,WindDirection,WindDirectionDegrees,WindSpeedMPH,WindSpeedGustMPH,Humidity,HourlyPrecipIn,Conditions,Clouds,dailyrainin,SoftwareType,DateUTC
2013-06-21 00:00:00,60.7,55.2,30.14,North,350,0.0,0.0,82,0.00,,,0.00,Wunderground v.1.15,2013-06-21 04:00:00,
2013-06-21 00:05:00,60.5,55.0,30.14,North,350,0.0,0.0,82,0.00,,,0.00,Wunderground v.1.15,2013-06-21 04:05:00,
2013-06-21 00:15:00,60.4,55.5,30.14,North,350,0.0,0.0,84,0.00,,,0.00,Wunderground v.1.15,2013-06-21 04:15:00,
2013-06-21 00:25:00,60.1,55.2,30.14,North,350,0.0,0.0,84,0.00,,,0.00,Wunderground v.1.15,2013-06-21 04:25:00,
2013-06-21 00:30:00,59.9,55.1,30.14,North,350,0.0,0.0,84,0.00,,,0.00,Wunderground v.1.15,2013-06-21 04:30:00,
2013-06-21 00:35:00,59.8,55.0,30.14,North,350,0.0,0.0,84,0.00,,,0.00,Wunderground v.1.15,2013-06-21 04:35:00,
2013-06-21 00:40:00,59.5,54.7,30.14,North,350,0.0,0.0,84,0.00,,,0.00,Wunderground v.1.15,2013-06-21 04:40:00,
2013-06-21 00:45:00,59.3,54.8,30.14,North,350,0.0,0.0,85,0.00,,,0.00,Wunderground v.1.15,2013-06-21 04:45:00,
2013-06-21 00:55:00,59.2,55.0,30.14,North,350,0.0,0.0,86,0.00,,,0.00,Wunderground v.1.15,2013-06-21 04:55:00,
2013-06-21 01:00:00,59.2,55.3,30.14,North,350,0.0,0.0,87,0.00,,,0.00,Wunderground v.1.15,2013-06-21 05:00:00,
2013-06-21 01:10:00,59.0,55.1,30.14,North,350,0.0,0.0,87,0.00,,,0.00,Wunderground v.1.15,2013-06-21 05:10:00,
2013-06-21 01:15:00,58.9,55.4,30.14,North,350,0.0,0.0,88,0.00,,,0.00,Wunderground v.1.15,2013-06-21 05:15:00,
2013-06-21 01:25:00,58.9,55.7,30.14,North,350,0.0,0.0,89,0.00,,,0.00,Wunderground v.1.15,2013-06-21 05:25:00,
2013-06-21 01:30:00,58.7,55.5,30.14,North,350,0.0,0.0,89,0.00,,,0.00,Wunderground v.1.15,2013-06-21 05:30:00,
2013-06-21 01:40:00,58.6,55.4,30.14,North,350,0.0,0.0,89,0.00,,,0.00,Wunderground v.1.15,2013-06-21 05:40:00,
2013-06-21 01:45:00,58.4,55.2,30.14,North,350,0.0,0.0,89,0.00,,,0.00,Wunderground v.1.15,2013-06-21 05:45:00,
2013-06-21 01:55:00,58.3,55.1,30.14,North,350,0.0,0.0,89,0.00,,,0.00,Wunderground v.1.15,2013-06-21 05:55:00,
2013-06-21 02:00:00,58.1,54.9,30.14,North,350,0.0,0.0,89,0.00,,,0.00,Wunderground v.1.15,2013-06-21 06:00:00,
2013-06-21 02:05:00,58.1,54.9,30.14,North,350,0.0,0.0,89,0.00,,,0.00,Wunderground v.1.15,2013-06-21 06:05:00,
2013-06-21 02:15:00,58.0,55.4,30.14,North,350,0.0,0.0,91,0.00,,,0.00,Wunderground v.1.15,2013-06-21 06:15:00,
2013-06-21 02:25:00,57.8,54.9,30.14,North,350,0.0,0.0,90,0.00,,,0.00,Wunderground v.1.15,2013-06-21 06:25:00,
2013-06-21 02:30:00,57.6,55.0,30.14,North,350,0.0,0.0,91,0.00,,,0.00,Wunderground v.1.15,2013-06-21 06:30:00,
2013-06-21 02:40:00,57.6,55.0,30.14,North,350,0.0,0.0,91,0.00,,,0.00,Wunderground v.1.15,2013-06-21 06:40:00,
2013-06-21 02:45:00,57.5,54.9,30.14,North,350,0.0,0.0,91,0.00,,,0.00,Wunderground v.1.15,2013-06-21 06:45:00,
2013-06-21 02:55:00,57.5,55.2,30.14,North,350,0.0,0.0,92,0.00,,,0.00,Wunderground v.1.15,2013-06-21 06:55:00,
2013-06-21 03:00:00,57.5,55.2,30.14,North,350,0.0,0.0,92,0.00,,,0.00,Wunderground v.1.15,2013-06-21 07:00:00,
2013-06-21 03:10:00,57.6,55.3,30.14,North,350,0.0,0.0,92,0.00,,,0.00,Wunderground v.1.15,2013-06-21 07:10:00,
2013-06-21 03:15:00,57.6,55.6,30.13,North,350,0.0,0.0,93,0.00,,,0.00,Wunderground v.1.15,2013-06-21 07:15:00,
2013-06-21 03:25:00,57.6,55.6,30.13,North,350,0.0,0.0,93,0.00,,,0.00,Wunderground v.1.15,2013-06-21 07:25:00,
2013-06-21 03:30:00,57.5,55.5,30.13,North,350,0.0,0.0,93,0.00,,,0.00,Wunderground v.1.15,2013-06-21 07:30:00,
2013-06-21 03:40:00,57.3,55.3,30.13,North,350,0.0,0.0,93,0.00,,,0.00,Wunderground v.1.15,2013-06-21 07:40:00,
2013-06-21 03:45:00,57.2,55.2,30.14,North,350,0.0,0.0,93,0.00,,,0.00,Wunderground v.1.15,2013-06-21 07:45:00,
2013-06-21 03:55:00,57.0,55.0,30.14,North,350,0.0,0.0,93,0.00,,,0.00,Wunderground v.1.15,2013-06-21 07:55:00,
2013-06-21 04:00:00,56.9,54.9,30.14,North,350,0.0,0.0,93,0.00,,,0.00,Wunderground v.1.15,2013-06-21 08:00:00,
2013-06-21 04:10:00,56.7,54.7,30.14,North,350,0.0,0.0,93,0.00,,,0.00,Wunderground v.1.15,2013-06-21 08:10:00,
2013-06-21 04:15:00,56.6,54.6,30.14,North,350,0.0,0.0,93,0.00,,,0.00,Wunderground v.1.15,2013-06-21 08:15:00,
2013-06-21 04:25:00,56.5,54.5,30.14,North,350,0.0,0.0,93,0.00,,,0.00,Wunderground v.1.15,2013-06-21 08:25:00,
2013-06-21 04:30:00,56.5,54.5,30.14,North,350,0.0,0.0,93,0.00,,,0.00,Wunderground v.1.15,2013-06-21 08:30:00,
2013-06-21 04:40:00,56.3,54.3,30.14,North,350,0.0,0.0,93,0.00,,,0.00,Wunderground v.1.15,2013-06-21 08:40:00,
2013-06-21 04:45:00,56.2,54.2,30.14,North,350,0.0,0.0,93,0.00,,,0.00,Wunderground v.1.15,2013-06-21 08:45:00,
2013-06-21 04:55:00,56.0,54.0,30.14,North,350,0.0,0.0,93,0.00,,,0.00,Wunderground v.1.15,2013-06-21 08:55:00,
2013-06-21 05:00:00,55.9,53.9,30.14,North,350,0.0,0.0,93,0.00,,,0.00,Wunderground v.1.15,2013-06-21 09:00:00,
2013-06-21 05:10:00,55.7,53.7,30.14,North,350,0.0,0.0,93,0.00,,,0.00,Wunderground v.1.15,2013-06-21 09:10:00,
2013-06-21 05:15:00,55.7,53.7,30.14,North,350,0.0,0.0,93,0.00,,,0.00,Wunderground v.1.15,2013-06-21 09:15:00,
2013-06-21 05:25:00,55.7,54.0,30.14,North,350,0.0,0.0,94,0.00,,,0.00,Wunderground v.1.15,2013-06-21 09:25:00,
2013-06-21 05:30:00,55.9,54.2,30.14,North,350,0.0,0.0,94,0.00,,,0.00,Wunderground v.1.15,2013-06-21 09:30:00,
2013-06-21 05:40:00,55.9,54.2,30.14,North,350,0.0,0.0,94,0.00,,,0.00,Wunderground v.1.15,2013-06-21 09:40:00,
2013-06-21 05:45:00,55.7,54.0,30.14,North,350,0.0,0.0,94,0.00,,,0.00,Wunderground v.1.15,2013-06-21 09:45:00,
2013-06-21 05:55:00,55.6,53.9,30.14,North,350,0.0,0.0,94,0.00,,,0.00,Wunderground v.1.15,2013-06-21 09:55:00,
2013-06-21 06:00:00,55.6,53.9,30.15,North,350,0.0,0.0,94,0.00,,,0.00,Wunderground v.1.15,2013-06-21 10:00:00,
2013-06-21 06:10:00,55.3,53.6,30.15,North,350,0.0,0.0,94,0.00,,,0.00,Wunderground v.1.15,2013-06-21 10:10:00,
2013-06-21 06:15:00,55.3,53.6,30.15,North,350,0.0,0.0,94,0.00,,,0.00,Wunderground v.1.15,2013-06-21 10:15:00,
2013-06-21 06:25:00,55.4,53.7,30.15,North,350,0.0,0.0,94,0.00,,,0.00,Wunderground v.1.15,2013-06-21 10:25:00,
2013-06-21 06:30:00,55.4,53.7,30.14,North,350,0.0,0.0,94,0.00,,,0.00,Wunderground v.1.15,2013-06-21 10:30:00,
2013-06-21 06:40:00,55.7,54.3,30.14,North,350,0.0,0.0,95,0.00,,,0.00,Wunderground v.1.15,2013-06-21 10:40:00,
2013-06-21 06:45:00,55.9,54.5,30.15,North,350,0.0,0.0,95,0.00,,,0.00,Wunderground v.1.15,2013-06-21 10:45:00,
2013-06-21 06:55:00,56.0,54.6,30.15,North,350,0.0,0.0,95,0.00,,,0.00,Wunderground v.1.15,2013-06-21 10:55:00,
2013-06-21 07:00:00,56.0,54.6,30.15,North,350,0.0,0.0,95,0.00,,,0.00,Wunderground v.1.15,2013-06-21 11:00:00,
2013-06-21 07:05:00,56.2,54.8,30.15,North,350,0.0,0.0,95,0.00,,,0.00,Wunderground v.1.15,2013-06-21 11:05:00,
2013-06-21 07:15:00,56.7,55.3,30.15,North,350,0.0,0.0,95,0.00,,,0.00,Wunderground v.1.15,2013-06-21 11:15:00,
2013-06-21 07:25:00,57.0,55.6,30.15,North,350,0.0,0.0,95,0.00,,,0.00,Wunderground v.1.15,2013-06-21 11:25:00,
2013-06-21 07:30:00,57.2,55.8,30.15,North,350,0.0,0.0,95,0.00,,,0.00,Wunderground v.1.15,2013-06-21 11:30:00,
2013-06-21 07:40:00,57.5,56.1,30.15,North,350,0.0,0.0,95,0.00,,,0.00,Wunderground v.1.15,2013-06-21 11:40:00,
2013-06-21 07:45:00,57.6,56.2,30.15,North,350,0.0,0.0,95,0.00,,,0.00,Wunderground v.1.15,2013-06-21 11:45:00,
2013-06-21 07:55:00,58.6,57.5,30.15,North,350,0.0,0.0,96,0.00,,,0.00,Wunderground v.1.15,2013-06-21 11:55:00,
2013-06-21 08:00:00,58.9,57.8,30.16,North,350,0.0,0.0,96,0.00,,,0.00,Wunderground v.1.15,2013-06-21 12:00:00,
2013-06-21 08:05:00,59.3,58.2,30.16,North,350,0.0,0.0,96,0.00,,,0.00,Wunderground v.1.15,2013-06-21 12:05:00,
2013-06-21 08:15:00,59.8,58.7,30.16,North,350,0.0,0.0,96,0.00,,,0.00,Wunderground v.1.15,2013-06-21 12:15:00,
2013-06-21 08:25:00,60.2,58.8,30.16,North,350,0.0,0.0,95,0.00,,,0.00,Wunderground v.1.15,2013-06-21 12:25:00,
2013-06-21 08:30:00,60.9,58.9,30.16,North,350,0.0,0.0,93,0.00,,,0.00,Wunderground v.1.15,2013-06-21 12:30:00,
2013-06-21 08:40:00,62.1,59.1,30.16,North,350,0.0,0.0,90,0.00,,,0.00,Wunderground v.1.15,2013-06-21 12:40:00,
2013-06-21 08:45:00,62.7,59.1,30.15,North,350,0.0,0.0,88,0.00,,,0.00,Wunderground v.1.15,2013-06-21 12:45:00,
2013-06-21 08:55:00,63.9,59.3,30.15,North,350,0.0,0.0,85,0.00,,,0.00,Wunderground v.1.15,2013-06-21 12:55:00,
2013-06-21 09:00:00,64.3,59.0,30.16,North,350,0.0,0.0,83,0.00,,,0.00,Wunderground v.1.15,2013-06-21 13:00:00,
2013-06-21 09:10:00,65.5,58.8,30.16,North,350,0.0,0.0,79,0.00,,,0.00,Wunderground v.1.15,2013-06-21 13:10:00,
2013-06-21 09:15:00,66.3,58.1,30.15,NNW,344,0.0,0.0,75,0.00,,,0.00,Wunderground v.1.15,2013-06-21 13:15:00,
2013-06-21 09:25:00,67.6,59.4,30.15,NNW,335,0.0,0.0,75,0.00,,,0.00,Wunderground v.1.15,2013-06-21 13:25:00,
2013-06-21 09:30:00,68.3,58.9,30.15,NNW,335,0.0,0.0,72,0.00,,,0.00,Wunderground v.1.15,2013-06-21 13:30:00,
2013-06-21 09:40:00,69.1,59.7,30.15,SSE,147,0.0,0.0,72,0.00,,,0.00,Wunderground v.1.15,2013-06-21 13:40:00,
2013-06-21 09:45:00,69.8,60.4,30.16,SSE,147,0.0,0.0,72,0.00,,,0.00,Wunderground v.1.15,2013-06-21 13:45:00,
2013-06-21 09:55:00,70.6,60.3,30.16,SSE,147,0.0,0.0,70,0.00,,,0.00,Wunderground v.1.15,2013-06-21 13:55:00,
2013-06-21 10:00:00,71.1,60.4,30.15,SSE,148,0.0,0.0,69,0.00,,,0.00,Wunderground v.1.15,2013-06-21 14:00:00,
2013-06-21 10:10:00,72.1,59.7,30.15,SSE,148,0.0,0.0,65,0.00,,,0.00,Wunderground v.1.15,2013-06-21 14:10:00,
2013-06-21 10:15:00,72.7,59.4,30.16,SSE,148,0.0,0.0,63,0.00,,,0.00,Wunderground v.1.15,2013-06-21 14:15:00,
2013-06-21 10:25:00,73.7,60.8,30.16,South,181,0.0,0.0,64,0.00,,,0.00,Wunderground v.1.15,2013-06-21 14:25:00,
2013-06-21 10:30:00,74.0,61.0,30.15,SW,225,0.0,0.0,64,0.00,,,0.00,Wunderground v.1.15,2013-06-21 14:30:00,
2013-06-21 10:40:00,74.9,60.1,30.15,SW,234,0.0,1.0,60,0.00,,,0.00,Wunderground v.1.15,2013-06-21 14:40:00,
2013-06-21 10:45:00,75.3,60.9,30.15,SW,220,1.0,1.0,61,0.00,,,0.00,Wunderground v.1.15,2013-06-21 14:45:00,
2013-06-21 10:55:00,75.8,59.0,30.15,SW,219,1.0,4.0,56,0.00,,,0.00,Wunderground v.1.15,2013-06-21 14:55:00,
2013-06-21 11:00:00,76.0,59.2,30.15,SW,215,2.0,2.0,56,0.00,,,0.00,Wunderground v.1.15,2013-06-21 15:00:00,
2013-06-21 11:15:00,76.7,57.7,30.15,SW,215,2.0,3.0,52,0.00,,,0.00,Wunderground v.1.15,2013-06-21 15:15:00,
2013-06-21 11:25:00,76.8,57.8,30.15,SSW,213,2.0,3.0,52,0.00,,,0.00,Wunderground v.1.15,2013-06-21 15:25:00,
2013-06-21 11:30:00,77.6,58.6,30.17,SW,233,1.0,2.0,52,0.00,,,0.00,Wunderground v.1.15,2013-06-21 15:30:00,
2013-06-21 11:40:00,78.1,56.2,30.17,SSW,209,1.0,1.0,47,0.00,,,0.00,Wunderground v.1.15,2013-06-21 15:40:00,
2013-06-21 11:45:00,78.3,59.8,30.17,SSW,207,1.0,3.0,53,0.00,,,0.00,Wunderground v.1.15,2013-06-21 15:45:00,
2013-06-21 11:55:00,78.6,57.3,30.17,WSW,258,1.0,2.0,48,0.00,,,0.00,Wunderground v.1.15,2013-06-21 15:55:00,
2013-06-21 12:00:00,79.2,59.0,30.16,WSW,258,0.0,0.0,50,0.00,,,0.00,Wunderground v.1.15,2013-06-21 16:00:00,
2013-06-21 12:15:00,79.4,57.4,30.16,SSW,209,1.0,1.0,47,0.00,,,0.00,Wunderground v.1.15,2013-06-21 16:15:00,
2013-06-21 12:25:00,79.9,61.8,30.16,SE,128,1.0,1.0,54,0.00,,,0.00,Wunderground v.1.15,2013-06-21 16:25:00,
2013-06-21 12:30:00,80.3,60.0,30.16,SSW,211,1.0,3.0,50,0.00,,,0.00,Wunderground v.1.15,2013-06-21 16:30:00,
2013-06-21 12:40:00,80.5,60.1,30.16,SSW,198,1.0,3.0,50,0.00,,,0.00,Wunderground v.1.15,2013-06-21 16:40:00,
2013-06-21 12:45:00,80.5,60.7,30.16,SSW,212,1.0,3.0,51,0.00,,,0.00,Wunderground v.1.15,2013-06-21 16:45:00,
2013-06-21 12:55:00,80.7,62.0,30.16,ESE,107,2.0,2.0,53,0.00,,,0.00,Wunderground v.1.15,2013-06-21 16:55:00,
2013-06-21 13:00:00,80.7,59.8,30.16,SSW,208,2.0,2.0,49,0.00,,,0.00,Wunderground v.1.15,2013-06-21 17:00:00,
2013-06-21 13:15:00,81.2,61.9,30.15,SE,125,1.0,2.0,52,0.00,,,0.00,Wunderground v.1.15,2013-06-21 17:15:00,
2013-06-21 13:25:00,81.8,63.0,30.15,SSW,200,2.0,2.0,53,0.00,,,0.00,Wunderground v.1.15,2013-06-21 17:25:00,
2013-06-21 13:35:00,82.0,61.5,30.15,South,190,1.0,2.0,50,0.00,,,0.00,Wunderground v.1.15,2013-06-21 17:35:00,
2013-06-21 13:40:00,82.0,59.8,30.15,SSW,209,1.0,2.0,47,0.00,,,0.00,Wunderground v.1.15,2013-06-21 17:40:00,
2013-06-21 13:45:00,82.0,58.6,30.15,SW,221,2.0,2.0,45,0.00,,,0.00,Wunderground v.1.15,2013-06-21 17:45:00,
2013-06-21 13:50:00,81.8,62.5,30.15,WSW,244,2.0,2.0,52,0.00,,,0.00,Wunderground v.1.15,2013-06-21 17:50:00,
2013-06-21 13:55:00,81.6,59.4,30.15,SW,224,3.0,4.0,47,0.00,,,0.00,Wunderground v.1.15,2013-06-21 17:55:00,
2013-06-21 14:00:00,82.2,62.3,30.14,SW,229,3.0,4.0,51,0.00,,,0.00,Wunderground v.1.15,2013-06-21 18:00:00,
2013-06-21 14:05:00,82.4,63.5,30.14,SSW,200,3.0,4.0,53,0.00,,,0.00,Wunderground v.1.15,2013-06-21 18:05:00,
2013-06-21 14:15:00,82.6,59.1,30.13,SW,227,2.0,2.0,45,0.00,,,0.00,Wunderground v.1.15,2013-06-21 18:15:00,
2013-06-21 14:25:00,82.4,60.1,30.13,West,259,2.0,3.0,47,0.00,,,0.00,Wunderground v.1.15,2013-06-21 18:25:00,
2013-06-21 14:30:00,82.8,58.7,30.13,SW,228,2.0,6.0,44,0.00,,,0.00,Wunderground v.1.15,2013-06-21 18:30:00,
2013-06-21 14:45:00,82.6,60.9,30.12,SSW,209,2.0,3.0,48,0.00,,,0.00,Wunderground v.1.15,2013-06-21 18:45:00,
2013-06-21 14:50:00,82.8,59.9,30.12,SSW,196,2.0,2.0,46,0.00,,,0.00,Wunderground v.1.15,2013-06-21 18:50:00,
2013-06-21 14:55:00,82.6,60.9,30.12,SSW,197,3.0,3.0,48,0.00,,,0.00,Wunderground v.1.15,2013-06-21 18:55:00,
2013-06-21 15:00:00,82.8,59.9,30.13,WSW,242,3.0,3.0,46,0.00,,,0.00,Wunderground v.1.15,2013-06-21 19:00:00,
2013-06-21 15:10:00,82.4,57.0,30.13,SW,220,5.0,5.0,42,0.00,,,0.00,Wunderground v.1.15,2013-06-21 19:10:00,
2013-06-21 15:15:00,82.6,57.8,30.12,NW,315,4.0,5.0,43,0.00,,,0.00,Wunderground v.1.15,2013-06-21 19:15:00,
2013-06-21 15:25:00,83.2,57.1,30.12,SSW,211,2.0,3.0,41,0.00,,,0.00,Wunderground v.1.15,2013-06-21 19:25:00,
2013-06-21 15:30:00,83.2,59.0,30.11,WSW,244,2.0,2.0,44,0.00,,,0.00,Wunderground v.1.15,2013-06-21 19:30:00,
2013-06-21 15:35:00,83.0,56.2,30.11,SW,219,2.0,3.0,40,0.00,,,0.00,Wunderground v.1.15,2013-06-21 19:35:00,
2013-06-21 15:45:00,83.2,59.6,30.11,SW,232,2.0,2.0,45,0.00,,,0.00,Wunderground v.1.15,2013-06-21 19:45:00,
2013-06-21 15:55:00,83.4,58.6,30.11,SW,216,1.0,2.0,43,0.00,,,0.00,Wunderground v.1.15,2013-06-21 19:55:00,
2013-06-21 16:00:00,83.4,61.7,30.10,SSW,208,1.0,1.0,48,0.00,,,0.00,Wunderground v.1.15,2013-06-21 20:00:00,
2013-06-21 16:10:00,84.0,58.4,30.10,South,180,1.0,1.0,42,0.00,,,0.00,Wunderground v.1.15,2013-06-21 20:10:00,
2013-06-21 16:15:00,84.1,59.8,30.10,SSW,211,1.0,1.0,44,0.00,,,0.00,Wunderground v.1.15,2013-06-21 20:15:00,
2013-06-21 16:25:00,84.3,59.4,30.10,SSW,209,0.0,1.0,43,0.00,,,0.00,Wunderground v.1.15,2013-06-21 20:25:00,
2013-06-21 16:30:00,84.3,57.3,30.10,SSE,153,1.0,1.0,40,0.00,,,0.00,Wunderground v.1.15,2013-06-21 20:30:00,
2013-06-21 16:40:00,84.3,55.2,30.10,SSW,210,1.0,1.0,37,0.00,,,0.00,Wunderground v.1.15,2013-06-21 20:40:00,
2013-06-21 16:50:00,84.1,54.3,30.09,SSW,204,1.0,1.0,36,0.00,,,0.00,Wunderground v.1.15,2013-06-21 20:50:00,
2013-06-21 17:00:00,83.8,57.6,30.08,SSW,207,1.0,3.0,41,0.00,,,0.00,Wunderground v.1.15,2013-06-21 21:00:00,
2013-06-21 17:10:00,84.0,57.1,30.08,SW,217,1.0,2.0,40,0.00,,,0.00,Wunderground v.1.15,2013-06-21 21:10:00,
2013-06-21 17:15:00,83.6,55.3,30.08,South,190,2.0,2.0,38,0.00,,,0.00,Wunderground v.1.15,2013-06-21 21:15:00,
2013-06-21 17:25:00,83.8,57.6,30.08,SW,214,1.0,2.0,41,0.00,,,0.00,Wunderground v.1.15,2013-06-21 21:25:00,
2013-06-21 17:30:00,83.4,55.1,30.08,SW,217,2.0,3.0,38,0.00,,,0.00,Wunderground v.1.15,2013-06-21 21:30:00,
2013-06-21 17:40:00,83.6,58.7,30.08,SSE,160,1.0,1.0,43,0.00,,,0.00,Wunderground v.1.15,2013-06-21 21:40:00,
2013-06-21 17:45:00,83.8,57.6,30.08,SW,217,1.0,1.0,41,0.00,,,0.00,Wunderground v.1.15,2013-06-21 21:45:00,
2013-06-21 17:55:00,83.4,56.5,30.08,SW,216,1.0,1.0,40,0.00,,,0.00,Wunderground v.1.15,2013-06-21 21:55:00,
2013-06-21 18:00:00,83.6,58.1,30.08,SW,216,1.0,1.0,42,0.00,,,0.00,Wunderground v.1.15,2013-06-21 22:00:00,
2013-06-21 18:10:00,83.2,55.7,30.08,SSW,213,1.0,1.0,39,0.00,,,0.00,Wunderground v.1.15,2013-06-21 22:10:00,
2013-06-21 18:15:00,83.0,58.2,30.07,SSW,207,1.0,6.0,43,0.00,,,0.00,Wunderground v.1.15,2013-06-21 22:15:00,
2013-06-21 18:25:00,82.0,57.3,30.07,SSW,194,1.0,2.0,43,0.00,,,0.00,Wunderground v.1.15,2013-06-21 22:25:00,
2013-06-21 18:30:00,82.0,59.2,30.08,SSW,194,0.0,0.0,46,0.00,,,0.00,Wunderground v.1.15,2013-06-21 22:30:00,
2013-06-21 18:40:00,82.0,58.6,30.08,SSW,194,0.0,0.0,45,0.00,,,0.00,Wunderground v.1.15,2013-06-21 22:40:00,
2013-06-21 18:45:00,81.8,59.6,30.07,SSW,194,0.0,0.0,47,0.00,,,0.00,Wunderground v.1.15,2013-06-21 22:45:00,
2013-06-21 18:55:00,81.2,56.6,30.07,SW,215,0.0,0.0,43,0.00,,,0.00,Wunderground v.1.15,2013-06-21 22:55:00,
2013-06-21 19:00:00,81.1,58.4,30.06,SW,215,0.0,0.0,46,0.00,,,0.00,Wunderground v.1.15,2013-06-21 23:00:00,
2013-06-21 19:10:00,80.7,60.3,30.06,SW,215,0.0,0.0,50,0.00,,,0.00,Wunderground v.1.15,2013-06-21 23:10:00,
2013-06-21 19:15:00,80.5,61.8,30.07,SW,215,0.0,0.0,53,0.00,,,0.00,Wunderground v.1.15,2013-06-21 23:15:00,
2013-06-21 19:25:00,79.9,61.2,30.07,SW,215,0.0,0.0,53,0.00,,,0.00,Wunderground v.1.15,2013-06-21 23:25:00,
2013-06-21 19:30:00,79.6,61.5,30.07,SW,215,0.0,0.0,54,0.00,,,0.00,Wunderground v.1.15,2013-06-21 23:30:00,
2013-06-21 19:40:00,79.0,62.5,30.07,SW,215,0.0,0.0,57,0.00,,,0.00,Wunderground v.1.15,2013-06-21 23:40:00,
2013-06-21 19:45:00,78.6,62.1,30.06,SW,215,0.0,0.0,57,0.00,,,0.00,Wunderground v.1.15,2013-06-21 23:45:00,
2013-06-21 19:55:00,77.9,61.4,30.06,SW,215,0.0,0.0,57,0.00,,,0.00,Wunderground v.1.15,2013-06-21 23:55:00,
2013-06-21 20:00:00,77.7,61.7,30.06,SW,215,0.0,0.0,58,0.00,,,0.00,Wunderground v.1.15,2013-06-22 00:00:00,
2013-06-21 20:10:00,77.7,62.2,30.06,SW,215,0.0,0.0,59,0.00,,,0.00,Wunderground v.1.15,2013-06-22 00:10:00,
2013-06-21 20:15:00,77.4,61.9,30.07,SW,215,0.0,0.0,59,0.00,,,0.00,Wunderground v.1.15,2013-06-22 00:15:00,
2013-06-21 20:25:00,76.8,62.8,30.07,SW,215,0.0,0.0,62,0.00,,,0.00,Wunderground v.1.15,2013-06-22 00:25:00,
2013-06-21 20:30:00,76.5,62.5,30.07,SW,215,0.0,0.0,62,0.00,,,0.00,Wunderground v.1.15,2013-06-22 00:30:00,
2013-06-21 20:40:00,75.6,62.1,30.07,SW,215,0.0,0.0,63,0.00,,,0.00,Wunderground v.1.15,2013-06-22 00:40:00,
2013-06-21 20:45:00,75.1,62.5,30.07,SW,215,0.0,0.0,65,0.00,,,0.00,Wunderground v.1.15,2013-06-22 00:45:00,
2013-06-21 20:55:00,74.4,61.9,30.07,SW,215,0.0,0.0,65,0.00,,,0.00,Wunderground v.1.15,2013-06-22 00:55:00,
2013-06-21 21:00:00,74.0,62.3,30.07,SW,215,0.0,0.0,67,0.00,,,0.00,Wunderground v.1.15,2013-06-22 01:00:00,
2013-06-21 21:10:00,73.3,62.5,30.07,SW,215,0.0,0.0,69,0.00,,,0.00,Wunderground v.1.15,2013-06-22 01:10:00,
2013-06-21 21:15:00,73.0,61.8,30.07,SW,215,0.0,0.0,68,0.00,,,0.00,Wunderground v.1.15,2013-06-22 01:15:00,
2013-06-21 21:25:00,72.3,63.2,30.07,SW,215,0.0,0.0,73,0.00,,,0.00,Wunderground v.1.15,2013-06-22 01:25:00,
2013-06-21 21:30:00,72.0,63.3,30.07,SW,215,0.0,0.0,74,0.00,,,0.00,Wunderground v.1.15,2013-06-22 01:30:00,
2013-06-21 21:40:00,71.6,64.0,30.07,SW,215,0.0,0.0,77,0.00,,,0.00,Wunderground v.1.15,2013-06-22 01:40:00,
2013-06-21 21:45:00,71.3,63.0,30.06,SW,215,0.0,0.0,75,0.00,,,0.00,Wunderground v.1.15,2013-06-22 01:45:00,
2013-06-21 21:55:00,70.8,62.1,30.06,SW,215,0.0,0.0,74,0.00,,,0.00,Wunderground v.1.15,2013-06-22 01:55:00,
2013-06-21 22:00:00,70.6,62.3,30.06,SW,215,0.0,0.0,75,0.00,,,0.00,Wunderground v.1.15,2013-06-22 02:00:00,
2013-06-21 22:10:00,70.3,62.4,30.06,SW,215,0.0,0.0,76,0.00,,,0.00,Wunderground v.1.15,2013-06-22 02:10:00,
2013-06-21 22:15:00,69.9,62.4,30.06,SW,215,0.0,0.0,77,0.00,,,0.00,Wunderground v.1.15,2013-06-22 02:15:00,
2013-06-21 22:25:00,69.6,62.1,30.06,SW,215,0.0,0.0,77,0.00,,,0.00,Wunderground v.1.15,2013-06-22 02:25:00,
2013-06-21 22:30:00,69.4,61.9,30.06,SW,215,0.0,0.0,77,0.00,,,0.00,Wunderground v.1.15,2013-06-22 02:30:00,
2013-06-21 22:40:00,69.3,62.5,30.06,SW,215,0.0,0.0,79,0.00,,,0.00,Wunderground v.1.15,2013-06-22 02:40:00,
2013-06-21 22:45:00,69.3,62.5,30.06,SW,215,0.0,0.0,79,0.00,,,0.00,Wunderground v.1.15,2013-06-22 02:45:00,
2013-06-21 22:55:00,69.1,61.9,30.06,SW,215,0.0,0.0,78,0.00,,,0.00,Wunderground v.1.15,2013-06-22 02:55:00,
2013-06-21 23:00:00,68.9,62.1,30.06,SW,215,0.0,0.0,79,0.00,,,0.00,Wunderground v.1.15,2013-06-22 03:00:00,
2013-06-21 23:10:00,69.6,62.1,30.06,SW,215,0.0,0.0,77,0.00,,,0.00,Wunderground v.1.15,2013-06-22 03:10:00,
2013-06-21 23:15:00,70.1,62.6,30.06,SW,215,0.0,0.0,77,0.00,,,0.00,Wunderground v.1.15,2013-06-22 03:15:00,
2013-06-21 23:25:00,69.9,62.4,30.06,SW,215,0.0,0.0,77,0.00,,,0.00,Wunderground v.1.15,2013-06-22 03:25:00,
2013-06-21 23:30:00,69.8,62.3,30.06,SW,215,0.0,0.0,77,0.00,,,0.00,Wunderground v.1.15,2013-06-22 03:30:00,
2013-06-21 23:40:00,69.6,62.8,30.06,SW,215,0.0,0.0,79,0.00,,,0.00,Wunderground v.1.15,2013-06-22 03:40:00,
2013-06-21 23:45:00,69.3,62.5,30.06,SW,215,0.0,0.0,79,0.00,,,0.00,Wunderground v.1.15,2013-06-22 03:45:00,
2013-06-21 23:55:00,68.9,62.5,30.06,SW,215,0.0,0.0,80,0.00,,,0.00,Wunderground v.1.15,2013-06-22 03:55:00,